Time;durP1;ratioP1;P1;durP2;ratioP2;P2;SDS_P1;SDS_P2;PMS_P1;PMS_P2;Temp;Humidity;BMP_temperature;BMP_pressure;BME280_temperature;BME280_humidity;BME280_pressure;Samples;Min_cycle;Max_cycle;Signal;HPM_P1;HPM_P2
2022/04/27 00:01:44;;;;;;;13.00;6.53;;;11.50;1.00;;;;;;5054296;28;20021;-86
2022/04/27 00:04:10;;;;;;;9.98;6.40;;;11.40;1.00;;;;;;5052720;28;20115;-85
2022/04/27 00:06:35;;;;;;;9.48;6.05;;;11.40;1.00;;;;;;5051246;28;20459;-85
2022/04/27 00:09:01;;;;;;;7.10;6.35;;;11.50;1.00;;;;;;5055946;28;20032;-85
2022/04/27 00:11:27;;;;;;;10.30;6.30;;;11.70;1.00;;;;;;5054096;28;20079;-85
2022/04/27 00:13:52;;;;;;;9.05;6.05;;;11.70;1.00;;;;;;5054900;28;20496;-85
2022/04/27 00:16:18;;;;;;;9.48;5.78;;;11.70;1.00;;;;;;5057771;28;20111;-85
2022/04/27 00:18:44;;;;;;;7.88;6.10;;;11.60;1.00;;;;;;5053859;28;20111;-85
2022/04/27 00:21:10;;;;;;;8.05;6.07;;;11.60;1.00;;;;;;5059950;28;20028;-85
2022/04/27 00:23:36;;;;;;;6.43;5.70;;;11.60;1.00;;;;;;5057677;28;20037;-85
2022/04/27 00:26:02;;;;;;;7.78;6.25;;;11.60;1.00;;;;;;5056544;28;20021;-85
2022/04/27 00:28:28;;;;;;;6.78;6.18;;;11.60;1.00;;;;;;5055005;28;20031;-85
2022/04/27 00:30:54;;;;;;;7.82;6.00;;;11.40;1.00;;;;;;5053369;28;20026;-85
2022/04/27 00:33:20;;;;;;;9.95;6.43;;;11.20;1.00;;;;;;5058283;28;20509;-85
2022/04/27 00:35:45;;;;;;;6.60;5.65;;;11.30;1.00;;;;;;5058269;28;20159;-84
2022/04/27 00:38:11;;;;;;;8.60;6.22;;;11.20;1.00;;;;;;5057405;28;20024;-85
2022/04/27 00:40:36;;;;;;;7.07;5.95;;;11.10;1.00;;;;;;5057658;28;20032;-85
2022/04/27 00:43:03;;;;;;;7.15;6.45;;;10.90;1.00;;;;;;5051977;28;20029;-85
2022/04/27 00:45:28;;;;;;;7.60;6.32;;;10.90;1.00;;;;;;5069973;28;20056;-86
2022/04/27 00:47:54;;;;;;;10.15;6.97;;;11.10;1.00;;;;;;5057598;28;20102;-85
2022/04/27 00:50:20;;;;;;;8.48;6.65;;;11.10;1.00;;;;;;5056205;28;20504;-85
2022/04/27 00:52:46;;;;;;;8.20;7.05;;;10.90;1.00;;;;;;5057120;28;20044;-85
2022/04/27 00:55:12;;;;;;;8.68;6.53;;;11.10;1.00;;;;;;5056253;28;20032;-85
2022/04/27 00:57:46;;;;;;;8.10;6.63;;;11.10;1.00;;;;;;5054104;28;20039;-85
2022/04/27 01:00:12;;;;;;;7.45;6.40;;;11.10;1.00;;;;;;5059287;28;20120;-85
2022/04/27 01:02:38;;;;;;;6.78;6.15;;;11.00;1.00;;;;;;5057100;28;20400;-85
2022/04/27 01:05:07;;;;;;;7.38;6.28;;;10.90;1.00;;;;;;5055721;28;20104;-85
2022/04/27 01:07:33;;;;;;;8.55;6.88;;;11.00;1.00;;;;;;5055362;28;20032;-85
2022/04/27 01:10:00;;;;;;;7.65;6.93;;;11.00;1.00;;;;;;5054140;28;20440;-85
2022/04/27 01:12:26;;;;;;;11.30;7.10;;;10.90;1.00;;;;;;5056502;28;20039;-85
2022/04/27 01:14:52;;;;;;;9.77;6.65;;;10.60;1.00;;;;;;5056901;28;20017;-85
2022/04/27 01:17:21;;;;;;;9.32;6.43;;;10.70;1.00;;;;;;5056963;28;20497;-85
2022/04/27 01:19:47;;;;;;;7.40;6.35;;;10.70;1.00;;;;;;5055272;28;20056;-84
2022/04/27 01:22:12;;;;;;;9.25;6.55;;;10.50;1.00;;;;;;5052796;28;20065;-85
2022/04/27 01:24:40;;;;;;;7.88;6.82;;;10.60;1.00;;;;;;5066635;28;20131;-86
2022/04/27 01:27:06;;;;;;;7.47;6.68;;;10.70;1.00;;;;;;5057503;28;20025;-85
2022/04/27 01:29:32;;;;;;;6.97;6.38;;;10.70;1.00;;;;;;5055371;28;20033;-85
2022/04/27 01:32:00;;;;;;;7.53;6.82;;;10.70;1.00;;;;;;5056800;28;20024;-85
2022/04/27 01:34:26;;;;;;;7.95;7.00;;;10.70;1.00;;;;;;5056849;28;20471;-85
2022/04/27 01:36:54;;;;;;;12.02;7.10;;;10.50;1.00;;;;;;5066939;28;20573;-85
2022/04/27 01:39:23;;;;;;;8.70;7.20;;;10.30;1.00;;;;;;5057242;28;20040;-85
2022/04/27 01:41:49;;;;;;;7.50;6.57;;;10.30;1.00;;;;;;5088300;28;20432;-85
2022/04/27 01:44:15;;;;;;;7.88;7.07;;;10.60;1.00;;;;;;5054634;28;20554;-85
2022/04/27 01:46:41;;;;;;;10.93;7.72;;;10.50;1.00;;;;;;5054954;28;20057;-85
2022/04/27 01:49:07;;;;;;;8.10;7.30;;;10.40;1.00;;;;;;5054344;28;20103;-85
2022/04/27 01:54:17;;;;;;;9.48;7.90;;;10.50;1.00;;;;;;5066154;28;20055;-85
2022/04/27 01:56:48;;;;;;;8.20;7.40;;;10.30;1.00;;;;;;5054968;28;20021;-85
2022/04/27 01:59:14;;;;;;;8.43;7.05;;;10.40;1.00;;;;;;5056222;28;20390;-85
2022/04/27 02:01:41;;;;;;;9.23;7.63;;;10.20;1.00;;;;;;5054746;28;20111;-85
2022/04/27 02:04:07;;;;;;;8.70;7.28;;;10.10;1.00;;;;;;5065820;28;20039;-85
2022/04/27 02:06:36;;;;;;;8.65;7.53;;;10.10;1.00;;;;;;5053422;28;20025;-85
2022/04/27 02:09:06;;;;;;;11.35;7.63;;;10.40;1.00;;;;;;5058053;28;20044;-85
2022/04/27 02:11:32;;;;;;;9.13;7.25;;;10.10;1.00;;;;;;5055945;28;20486;-85
2022/04/27 02:13:58;;;;;;;9.27;7.47;;;10.00;1.00;;;;;;5055923;28;20029;-85
2022/04/27 02:16:25;;;;;;;10.18;7.90;;;10.10;1.00;;;;;;5055873;28;20035;-85
2022/04/27 02:18:52;;;;;;;8.38;7.32;;;10.00;1.00;;;;;;5051745;28;20021;-86
2022/04/27 02:21:18;;;;;;;8.70;7.80;;;10.10;1.00;;;;;;5056921;28;20029;-86
2022/04/27 02:23:46;;;;;;;7.80;6.97;;;10.10;1.00;;;;;;5054624;28;20493;-85
2022/04/27 02:26:12;;;;;;;8.60;7.70;;;10.20;1.00;;;;;;5054172;28;20075;-85
2022/04/27 02:28:38;;;;;;;8.75;7.00;;;10.10;1.00;;;;;;5055638;28;20034;-85
2022/04/27 02:31:04;;;;;;;7.88;7.13;;;10.10;1.00;;;;;;5053539;28;20112;-85
2022/04/27 02:33:30;;;;;;;8.07;7.13;;;10.20;1.00;;;;;;5053105;28;20555;-85
2022/04/27 02:35:56;;;;;;;9.73;7.65;;;10.10;1.00;;;;;;5056403;28;20029;-85
2022/04/27 02:38:22;;;;;;;8.60;7.70;;;10.00;1.00;;;;;;5054217;28;20515;-85
2022/04/27 02:40:48;;;;;;;8.85;7.85;;;10.10;1.00;;;;;;5054063;28;20052;-85
2022/04/27 02:43:14;;;;;;;9.07;7.25;;;10.20;1.00;;;;;;5054540;28;20040;-85
2022/04/27 02:45:41;;;;;;;9.88;7.43;;;10.10;1.00;;;;;;5051615;28;20083;-85
2022/04/27 02:48:07;;;;;;;8.85;7.40;;;10.00;1.00;;;;;;5056960;28;20030;-85
2022/04/27 02:53:17;;;;;;;12.85;7.43;;;9.70;1.00;;;;;;5055125;28;20098;-85
2022/04/27 02:55:44;;;;;;;10.27;7.38;;;9.50;1.00;;;;;;5055191;28;20024;-85
2022/04/27 02:58:09;;;;;;;8.75;7.70;;;9.80;1.00;;;;;;5053958;28;20024;-85
2022/04/27 03:00:35;;;;;;;7.88;7.07;;;9.80;1.00;;;;;;5052035;28;20612;-85
2022/04/27 03:03:01;;;;;;;8.68;7.78;;;9.70;1.00;;;;;;5056570;28;20370;-86
2022/04/27 03:05:27;;;;;;;8.45;7.65;;;9.60;1.00;;;;;;5053723;28;20029;-85
2022/04/27 03:07:52;;;;;;;14.98;7.82;;;9.50;1.00;;;;;;5053691;28;20374;-85
2022/04/27 03:10:18;;;;;;;8.18;7.15;;;9.50;1.00;;;;;;5054771;28;20067;-85
2022/04/27 03:12:43;;;;;;;10.20;7.47;;;9.70;1.00;;;;;;5050720;28;20033;-85
2022/04/27 03:15:09;;;;;;;8.30;7.50;;;9.60;1.00;;;;;;5056883;28;20108;-85
2022/04/27 03:17:35;;;;;;;9.10;7.28;;;9.60;1.00;;;;;;5054500;28;20031;-84
2022/04/27 03:20:01;;;;;;;8.70;7.90;;;9.50;1.00;;;;;;5054906;28;20413;-85
2022/04/27 03:22:26;;;;;;;8.23;7.43;;;9.40;1.00;;;;;;5054642;28;20497;-85
2022/04/27 03:24:52;;;;;;;9.35;7.72;;;9.40;1.00;;;;;;5051017;28;20121;-85
2022/04/27 03:27:18;;;;;;;10.20;7.90;;;9.40;1.00;;;;;;5055875;28;20021;-85
2022/04/27 03:29:43;;;;;;;8.48;7.68;;;9.40;1.00;;;;;;5055106;28;20397;-84
2022/04/27 03:32:10;;;;;;;9.88;8.05;;;9.30;1.00;;;;;;5054288;28;20074;-85
2022/04/27 03:34:36;;;;;;;11.20;7.78;;;9.20;1.00;;;;;;5054354;28;20087;-85
2022/04/27 03:37:01;;;;;;;10.05;7.60;;;9.50;1.00;;;;;;5050942;28;20067;-85
2022/04/27 03:39:28;;;;;;;9.73;8.73;;;9.50;1.00;;;;;;5053709;28;20462;-85
2022/04/27 03:41:53;;;;;;;8.60;7.70;;;9.30;1.00;;;;;;5054182;28;20025;-85
2022/04/27 03:44:19;;;;;;;11.13;8.20;;;9.30;1.00;;;;;;5052880;28;20036;-85
2022/04/27 03:46:44;;;;;;;8.93;8.10;;;9.30;1.00;;;;;;5051588;28;20049;-85
2022/04/27 03:49:10;;;;;;;9.93;8.15;;;9.20;1.00;;;;;;5059706;28;20029;-85
2022/04/27 03:51:36;;;;;;;9.02;7.68;;;9.40;1.00;;;;;;5057959;28;20025;-85
2022/04/27 03:54:02;;;;;;;10.93;8.35;;;9.40;1.00;;;;;;5062914;28;20062;-85
2022/04/27 03:56:27;;;;;;;9.35;7.88;;;9.10;1.00;;;;;;5059853;28;20370;-85
2022/04/27 03:58:53;;;;;;;10.48;8.60;;;9.20;1.00;;;;;;5061067;28;20493;-85
2022/04/27 04:01:19;;;;;;;9.50;8.30;;;9.00;1.00;;;;;;5060679;28;20032;-85
2022/04/27 04:03:44;;;;;;;10.77;8.48;;;9.20;1.00;;;;;;5056552;28;20052;-85
2022/04/27 04:06:10;;;;;;;9.45;8.40;;;9.10;1.00;;;;;;5062932;28;20126;-85
2022/04/27 04:08:35;;;;;;;11.30;8.77;;;9.20;1.00;;;;;;5060973;28;20171;-85
2022/04/27 04:11:01;;;;;;;9.15;7.97;;;9.20;1.00;;;;;;5061015;28;20481;-85
2022/04/27 04:13:26;;;;;;;9.07;8.13;;;9.40;1.00;;;;;;5060801;28;20127;-85
2022/04/27 04:15:52;;;;;;;9.35;8.35;;;9.30;1.00;;;;;;5056804;28;20409;-85
2022/04/27 04:18:18;;;;;;;9.32;8.25;;;9.10;1.00;;;;;;5062033;28;20497;-85
2022/04/27 04:20:44;;;;;;;10.00;8.20;;;8.90;1.00;;;;;;5061389;28;20052;-84
2022/04/27 04:23:10;;;;;;;10.48;8.23;;;8.80;1.00;;;;;;5059190;28;20036;-85
2022/04/27 04:28:31;;;;;;;8.85;7.63;;;9.00;1.00;;;;;;5060639;28;20043;-85
2022/04/27 04:31:03;;;;;;;10.65;8.00;;;8.80;1.00;;;;;;5043301;28;20025;-85
2022/04/27 04:33:29;;;;;;;10.30;8.50;;;8.70;1.00;;;;;;5059168;28;20112;-85
2022/04/27 04:35:56;;;;;;;10.00;9.00;;;8.70;1.00;;;;;;5062291;28;20029;-85
2022/04/27 04:38:22;;;;;;;11.63;9.35;;;8.70;1.00;;;;;;5060714;28;20106;-85
2022/04/27 04:40:48;;;;;;;11.85;8.75;;;8.90;1.00;;;;;;5060825;28;20497;-85
2022/04/27 04:43:14;;;;;;;10.82;8.82;;;9.00;1.00;;;;;;5059281;28;20485;-85
2022/04/27 04:45:40;;;;;;;10.48;8.52;;;9.00;1.00;;;;;;5057065;28;20030;-85
2022/04/27 04:48:06;;;;;;;10.55;8.40;;;9.00;1.00;;;;;;5062642;28;20025;-85
2022/04/27 04:50:31;;;;;;;10.77;8.73;;;8.90;1.00;;;;;;5060607;28;20406;-85
2022/04/27 04:52:57;;;;;;;12.57;9.50;;;8.70;1.00;;;;;;5060711;28;20115;-85
2022/04/27 04:55:22;;;;;;;10.25;8.65;;;8.90;1.00;;;;;;5060521;28;20067;-85
2022/04/27 04:57:48;;;;;;;10.15;9.13;;;8.90;1.00;;;;;;5053248;28;20478;-85
2022/04/27 05:00:14;;;;;;;9.93;8.93;;;8.80;1.00;;;;;;5058974;28;20029;-85
2022/04/27 05:02:40;;;;;;;10.38;8.50;;;8.80;1.00;;;;;;5054497;28;20029;-84
2022/04/27 05:05:06;;;;;;;11.45;8.70;;;8.70;1.00;;;;;;5057248;28;20052;-85
2022/04/27 05:07:33;;;;;;;9.98;8.98;;;8.70;1.00;;;;;;5055865;28;20024;-84
2022/04/27 05:09:59;;;;;;;11.32;8.50;;;8.80;1.00;;;;;;5054234;28;20070;-85
2022/04/27 05:12:25;;;;;;;10.85;9.07;;;8.70;1.00;;;;;;5056599;28;20025;-85
2022/04/27 05:14:51;;;;;;;9.75;8.75;;;8.50;1.00;;;;;;5058135;28;20029;-84
2022/04/27 05:17:16;;;;;;;9.60;8.63;;;8.40;1.00;;;;;;5055842;28;20033;-85
2022/04/27 05:19:42;;;;;;;11.30;8.82;;;8.40;1.00;;;;;;5057014;28;20035;-85
2022/04/27 05:22:08;;;;;;;9.85;8.80;;;8.50;1.00;;;;;;5055299;28;20070;-84
2022/04/27 05:24:34;;;;;;;10.80;8.85;;;8.50;1.00;;;;;;5054194;28;20040;-85
2022/04/27 05:26:59;;;;;;;10.68;9.13;;;8.50;1.00;;;;;;5058698;28;20025;-85
2022/04/27 05:32:10;;;;;;;11.20;9.25;;;8.60;1.00;;;;;;5059185;28;20035;-84
2022/04/27 05:34:36;;;;;;;10.73;9.02;;;8.70;1.00;;;;;;5065786;28;20062;-85
2022/04/27 05:37:02;;;;;;;12.02;9.65;;;8.60;1.00;;;;;;5052822;28;20470;-85
2022/04/27 05:39:28;;;;;;;10.82;9.73;;;8.60;1.00;;;;;;5055560;28;20025;-85
2022/04/27 05:41:54;;;;;;;11.15;10.05;;;8.70;1.00;;;;;;5055972;28;20478;-85
2022/04/27 05:44:22;;;;;;;13.77;10.30;;;8.70;1.00;;;;;;5056427;28;20037;-84
2022/04/27 05:46:48;;;;;;;12.00;9.63;;;8.90;1.00;;;;;;5055021;28;20053;-85
2022/04/27 05:49:14;;;;;;;13.85;10.02;;;8.90;1.00;;;;;;5055630;28;20025;-85
2022/04/27 05:51:40;;;;;;;12.55;9.60;;;8.90;1.00;;;;;;5053006;28;20021;-85
2022/04/27 05:54:06;;;;;;;13.40;9.60;;;9.00;1.00;;;;;;5056988;28;20405;-85
2022/04/27 05:56:31;;;;;;;11.77;9.60;;;9.10;1.00;;;;;;5055907;28;20127;-85
2022/04/27 05:58:57;;;;;;;12.38;9.85;;;9.00;1.00;;;;;;5054841;28;20131;-85
2022/04/27 06:01:23;;;;;;;12.52;9.73;;;8.90;1.00;;;;;;5056331;28;20425;-85
2022/04/27 06:03:49;;;;;;;13.18;9.52;;;8.90;1.00;;;;;;5051786;28;20040;-85
2022/04/27 06:06:15;;;;;;;12.20;10.10;;;8.90;1.00;;;;;;5056736;28;20025;-85
2022/04/27 06:08:41;;;;;;;13.32;10.27;;;8.90;1.00;;;;;;5054900;28;20113;-85
2022/04/27 06:11:06;;;;;;;11.05;9.88;;;8.90;1.00;;;;;;5055429;28;20100;-86
2022/04/27 06:13:32;;;;;;;14.65;10.43;;;9.00;1.00;;;;;;5055942;28;20032;-85
2022/04/27 06:15:58;;;;;;;12.68;10.25;;;9.10;1.00;;;;;;5053827;28;20082;-85
2022/04/27 06:18:23;;;;;;;12.93;10.60;;;9.20;1.00;;;;;;5055540;28;20078;-85
2022/04/27 06:20:52;;;;;;;12.27;10.75;;;9.30;1.00;;;;;;5055371;28;20136;-85
2022/04/27 06:23:18;;;;;;;14.75;10.30;;;9.40;1.00;;;;;;5054429;28;20123;-85
2022/04/27 06:25:47;;;;;;;12.30;10.90;;;9.50;1.00;;;;;;5055248;28;20040;-85
2022/04/27 06:28:13;;;;;;;12.48;11.10;;;9.60;1.00;;;;;;5054594;28;20028;-85
2022/04/27 06:30:39;;;;;;;15.05;12.35;;;9.80;1.00;;;;;;5068536;28;20262;-85
2022/04/27 06:33:05;;;;;;;13.82;11.82;;;9.80;1.00;;;;;;5057571;28;20547;-85
2022/04/27 06:35:31;;;;;;;18.33;12.23;;;9.80;1.00;;;;;;5055334;28;20128;-85
2022/04/27 06:37:57;;;;;;;16.90;12.77;;;10.00;1.00;;;;;;5055345;28;20104;-85
2022/04/27 06:40:22;;;;;;;20.33;12.80;;;10.00;1.00;;;;;;5055066;28;20036;-85
2022/04/27 06:42:48;;;;;;;16.95;12.48;;;10.10;1.00;;;;;;5051136;28;20018;-85
2022/04/27 06:45:14;;;;;;;17.27;14.32;;;10.40;1.00;;;;;;5056042;28;20037;-85
2022/04/27 06:47:39;;;;;;;15.15;13.55;;;10.80;1.00;;;;;;5054060;28;20025;-85
2022/04/27 06:50:06;;;;;;;16.50;14.20;;;10.60;1.00;;;;;;5055297;28;20044;-85
2022/04/27 06:52:39;;;;;;;16.05;14.20;;;10.60;1.00;;;;;;5055115;28;20519;-85
2022/04/27 06:55:05;;;;;;;16.33;13.93;;;10.70;1.00;;;;;;5051070;28;20052;-85
2022/04/27 06:57:30;;;;;;;20.25;14.63;;;10.80;1.00;;;;;;5053763;28;20033;-85
2022/04/27 06:59:56;;;;;;;16.85;13.63;;;10.80;1.00;;;;;;5054715;28;20021;-85
2022/04/27 07:02:22;;;;;;;15.80;13.95;;;11.00;1.00;;;;;;5054974;28;20029;-85
2022/04/27 07:04:55;;;;;;;17.02;14.82;;;11.00;1.00;;;;;;5054897;28;20501;-85
2022/04/27 07:07:21;;;;;;;18.50;15.50;;;10.90;1.00;;;;;;5054974;28;20020;-85
2022/04/27 07:09:47;;;;;;;16.92;14.77;;;11.00;1.00;;;;;;5034458;28;20033;-85
2022/04/27 07:12:13;;;;;;;17.50;15.57;;;11.10;1.00;;;;;;5056787;28;20104;-85
2022/04/27 07:14:38;;;;;;;17.67;15.77;;;11.20;1.00;;;;;;5054741;28;20478;-85
2022/04/27 07:17:04;;;;;;;18.70;14.35;;;11.30;1.00;;;;;;5054759;28;20021;-85
2022/04/27 07:19:30;;;;;;;22.27;15.75;;;11.40;1.00;;;;;;5053358;28;20066;-85
2022/04/27 07:21:55;;;;;;;18.77;16.77;;;11.40;1.00;;;;;;5050726;28;20041;-85
2022/04/27 07:24:21;;;;;;;18.02;15.02;;;11.50;1.00;;;;;;5054739;28;20091;-85
2022/04/27 07:26:46;;;;;;;17.92;15.00;;;11.60;1.00;;;;;;5055280;28;20100;-86
2022/04/27 07:29:12;;;;;;;18.88;15.80;;;11.70;1.00;;;;;;5053233;28;20029;-85
2022/04/27 07:31:38;;;;;;;17.95;15.80;;;11.70;1.00;;;;;;5054517;28;20029;-85
2022/04/27 07:34:03;;;;;;;21.02;16.15;;;11.80;1.00;;;;;;5050620;28;20076;-85
2022/04/27 07:36:29;;;;;;;21.90;16.15;;;11.80;1.00;;;;;;5053312;28;20399;-85
2022/04/27 07:38:55;;;;;;;19.98;16.02;;;11.80;1.00;;;;;;5053855;28;20029;-85
2022/04/27 07:41:20;;;;;;;20.25;17.17;;;11.80;1.00;;;;;;5054450;28;20029;-85
2022/04/27 07:43:46;;;;;;;19.05;16.58;;;11.80;1.00;;;;;;5054335;28;20029;-85
2022/04/27 07:46:12;;;;;;;18.90;15.73;;;12.00;1.00;;;;;;5053332;28;20052;-85
2022/04/27 07:48:37;;;;;;;24.58;16.10;;;12.10;1.00;;;;;;5051287;28;20021;-85
2022/04/27 07:51:05;;;;;;;16.65;14.38;;;12.20;1.00;;;;;;5056331;28;20036;-85
2022/04/27 07:53:31;;;;;;;20.80;14.93;;;12.30;1.00;;;;;;5053849;28;20037;-85
2022/04/27 07:55:57;;;;;;;18.17;15.30;;;12.40;1.00;;;;;;5054200;28;20036;-85
2022/04/27 07:58:22;;;;;;;16.13;14.50;;;12.40;1.00;;;;;;5054320;28;20050;-85
2022/04/27 08:00:48;;;;;;;15.38;13.77;;;12.40;1.00;;;;;;5050067;28;20171;-85
2022/04/27 08:03:14;;;;;;;14.63;13.23;;;12.50;1.00;;;;;;5054919;28;20033;-85
2022/04/27 08:05:40;;;;;;;14.68;12.98;;;12.50;1.00;;;;;;5054155;28;20512;-84
2022/04/27 08:08:08;;;;;;;15.15;11.90;;;12.50;1.00;;;;;;5053826;28;20110;-85
2022/04/27 08:10:34;;;;;;;15.70;13.68;;;12.60;1.00;;;;;;5054061;28;20032;-85
2022/04/27 08:13:00;;;;;;;14.93;12.68;;;12.80;1.00;;;;;;5049810;28;20026;-85
2022/04/27 08:15:25;;;;;;;15.35;11.70;;;12.80;1.00;;;;;;5053519;28;20028;-85
2022/04/27 08:18:10;;;;;;;14.02;11.40;;;12.80;1.00;;;;;;5053675;28;20449;-85
2022/04/27 08:23:23;;;;;;;13.02;11.65;;;13.00;1.00;;;;;;5054270;28;20044;-85
2022/04/27 08:25:50;;;;;;;14.32;12.55;;;13.20;1.00;;;;;;5052696;28;20026;-85
2022/04/27 08:28:17;;;;;;;14.30;11.77;;;13.10;1.00;;;;;;5053474;28;20119;-86
2022/04/27 08:30:47;;;;;;;14.80;12.40;;;13.10;1.00;;;;;;5049950;28;20025;-85
2022/04/27 08:33:14;;;;;;;15.18;11.65;;;13.10;1.00;;;;;;5055902;28;20036;-85
2022/04/27 08:35:41;;;;;;;13.68;11.60;;;13.30;1.00;;;;;;5056177;28;20049;-85
2022/04/27 08:38:07;;;;;;;13.65;11.65;;;13.30;1.00;;;;;;5057645;28;20029;-85
2022/04/27 08:40:46;;;;;;;14.48;12.15;;;13.40;1.00;;;;;;5057637;28;20028;-85
2022/04/27 08:43:12;;;;;;;13.55;12.13;;;13.60;1.00;;;;;;5054859;28;20029;-85
2022/04/27 08:45:43;;;;;;;13.63;12.30;;;13.70;1.00;;;;;;5054307;28;20021;-85
2022/04/27 08:48:10;;;;;;;14.25;11.90;;;13.60;1.00;;;;;;5059610;28;20029;-86
2022/04/27 08:50:37;;;;;;;13.25;11.85;;;13.60;1.00;;;;;;5055809;28;20021;-85
2022/04/27 08:53:02;;;;;;;14.85;11.38;;;13.70;1.00;;;;;;5054545;28;20396;-85
2022/04/27 08:55:28;;;;;;;12.80;11.50;;;13.70;1.00;;;;;;5055843;28;20025;-85
2022/04/27 08:58:05;;;;;;;17.38;11.63;;;14.00;1.00;;;;;;5053659;28;20087;-85
2022/04/27 09:00:30;;;;;;;13.05;11.63;;;14.10;1.00;;;;;;5055599;28;20025;-85
2022/04/27 09:03:32;;;;;;;13.18;11.63;;;14.20;1.00;;;;;;5058826;28;20025;-85
2022/04/27 09:06:00;;;;;;;15.32;11.68;;;14.20;1.00;;;;;;5058586;28;20029;-85
2022/04/27 09:08:43;;;;;;;13.43;10.95;;;14.30;1.00;;;;;;5055750;28;20029;-85
2022/04/27 09:11:34;;;;;;;14.30;11.27;;;14.40;1.00;;;;;;5056872;28;20478;-85
2022/04/27 09:14:06;;;;;;;11.70;10.60;;;14.40;1.00;;;;;;5056865;28;20052;-85
2022/04/27 09:22:08;;;;;;;11.82;10.48;;;14.70;1.00;;;;;;5055322;28;20035;-84
2022/04/27 09:25:00;;;;;;;11.50;10.40;;;14.50;1.00;;;;;;5054132;28;20030;-85
2022/04/27 09:27:26;;;;;;;10.63;9.63;;;14.80;1.00;;;;;;5066611;28;20390;-85
2022/04/27 09:30:12;;;;;;;13.10;10.55;;;14.90;1.00;;;;;;5056311;28;20033;-85
2022/04/27 09:32:50;;;;;;;10.55;9.55;;;14.80;1.00;;;;;;5055123;28;20512;-85
2022/04/27 09:35:29;;;;;;;10.95;9.77;;;14.90;1.00;;;;;;5054912;28;20529;-85
2022/04/27 09:37:55;;;;;;;10.93;9.82;;;14.90;1.00;;;;;;5055481;28;20063;-85
2022/04/27 09:40:21;;;;;;;10.32;9.13;;;15.00;1.00;;;;;;5056533;28;20029;-85
2022/04/27 09:42:47;;;;;;;10.40;9.40;;;15.10;1.00;;;;;;5036148;28;20140;-85
2022/04/27 09:45:19;;;;;;;10.85;8.82;;;15.20;1.00;;;;;;5057804;28;20043;-85
2022/04/27 09:48:04;;;;;;;10.45;9.45;;;15.20;1.00;;;;;;5056267;28;20035;-85
2022/04/27 09:50:49;;;;;;;9.27;8.40;;;15.20;1.00;;;;;;5056298;28;20033;-85
2022/04/27 09:53:15;;;;;;;9.13;8.30;;;15.30;1.00;;;;;;5056117;28;20162;-85
2022/04/27 09:55:59;;;;;;;9.52;8.52;;;15.30;1.00;;;;;;5056250;28;20094;-85
2022/04/27 09:58:27;;;;;;;9.98;8.30;;;15.40;1.00;;;;;;5056184;28;20029;-85
2022/04/27 10:00:57;;;;;;;10.55;8.77;;;15.50;1.00;;;;;;5052182;28;20022;-85
2022/04/27 10:03:25;;;;;;;8.65;7.63;;;15.70;1.00;;;;;;5055991;28;20072;-86
2022/04/27 10:05:50;;;;;;;10.57;7.15;;;15.90;1.00;;;;;;5056684;28;20433;-85
2022/04/27 10:08:19;;;;;;;9.10;7.63;;;16.10;1.00;;;;;;5055861;28;20021;-85
2022/04/27 10:10:47;;;;;;;7.72;6.88;;;16.00;1.00;;;;;;5053213;28;20072;-85
2022/04/27 10:13:15;;;;;;;7.47;6.70;;;15.90;1.00;;;;;;5053174;28;20117;-85
2022/04/27 10:15:46;;;;;;;7.97;6.38;;;16.10;1.00;;;;;;5052369;28;20021;-85
2022/04/27 10:18:15;;;;;;;8.35;6.75;;;16.30;1.00;;;;;;5057429;28;20028;-85
2022/04/27 10:20:41;;;;;;;7.40;6.45;;;16.50;1.00;;;;;;5055619;28;20029;-85
2022/04/27 10:23:15;;;;;;;6.07;5.35;;;16.30;1.00;;;;;;5055473;28;20083;-85
2022/04/27 10:25:42;;;;;;;6.20;5.50;;;16.40;1.00;;;;;;5055709;28;20040;-86
2022/04/27 10:28:26;;;;;;;6.40;5.80;;;16.60;1.00;;;;;;5053659;28;20021;-85
2022/04/27 10:30:51;;;;;;;6.55;5.93;;;16.80;1.00;;;;;;5035733;28;20032;-85
2022/04/27 10:33:50;;;;;;;6.75;6.03;;;16.80;1.00;;;;;;5057247;28;20017;-85
2022/04/27 10:36:22;;;;;;;6.43;5.50;;;16.80;1.00;;;;;;5057473;28;20037;-85
2022/04/27 10:39:09;;;;;;;7.13;6.35;;;16.90;1.00;;;;;;5054472;28;20025;-85
2022/04/27 10:41:35;;;;;;;6.53;5.93;;;16.80;1.00;;;;;;5055356;28;20098;-85
2022/04/27 10:44:01;;;;;;;5.30;4.80;;;16.70;1.00;;;;;;5055213;28;20036;-86
2022/04/27 10:46:38;;;;;;;5.25;4.75;;;16.90;1.00;;;;;;5054806;28;20031;-85
2022/04/27 10:49:25;;;;;;;6.55;4.75;;;17.20;1.00;;;;;;5051280;28;20508;-85
2022/04/27 10:52:08;;;;;;;6.60;5.13;;;17.50;1.00;;;;;;5033949;28;20028;-86
2022/04/27 10:54:37;;;;;;;5.47;4.97;;;18.00;1.00;;;;;;5052782;28;20051;-85
2022/04/27 10:57:14;;;;;;;6.07;5.47;;;18.60;1.00;;;;;;5054581;28;20090;-85
2022/04/27 10:59:48;;;;;;;5.13;4.63;;;19.30;1.00;;;;;;5055076;28;20039;-85
2022/04/27 11:02:34;;;;;;;5.68;5.07;;;20.20;1.00;;;;;;5055081;28;20028;-85
2022/04/27 11:05:04;;;;;;;6.05;4.70;;;21.00;1.00;;;;;;5054905;28;20029;-86
2022/04/27 11:07:33;;;;;;;6.32;5.13;;;21.30;1.00;;;;;;5054930;28;20025;-85
2022/04/27 11:10:05;;;;;;;5.70;5.20;;;22.10;1.00;;;;;;5051889;28;20117;-85
2022/04/27 11:12:32;;;;;;;5.40;4.90;;;22.10;1.00;;;;;;5052242;28;20036;-86
2022/04/27 11:14:59;;;;;;;5.50;5.00;;;22.60;1.00;;;;;;5056234;28;20550;-86
2022/04/27 11:17:28;;;;;;;5.75;4.82;;;22.90;1.00;;;;;;5054781;28;20025;-85
2022/04/27 11:19:54;;;;;;;6.45;5.20;;;23.60;1.00;;;;;;5054687;28;20027;-86
2022/04/27 11:22:20;;;;;;;5.72;5.22;;;23.50;1.00;;;;;;5054512;28;20028;-85
2022/04/27 11:24:49;;;;;;;5.30;4.60;;;23.60;1.00;;;;;;5050533;28;20029;-86
2022/04/27 11:27:27;;;;;;;5.40;4.90;;;24.00;1.00;;;;;;5056789;28;20025;-86
2022/04/27 11:29:54;;;;;;;5.07;4.20;;;24.30;1.00;;;;;;5055244;28;20058;-86
2022/04/27 11:32:19;;;;;;;4.97;4.38;;;24.80;1.00;;;;;;5052951;28;20029;-86
2022/04/27 11:34:49;;;;;;;5.20;4.70;;;24.50;1.00;;;;;;5054288;28;20140;-86
2022/04/27 11:37:20;;;;;;;4.32;4.00;;;24.70;1.00;;;;;;5053612;28;20024;-86
2022/04/27 11:39:46;;;;;;;4.10;3.72;;;25.10;1.00;;;;;;5050493;28;20028;-86
2022/04/27 11:42:13;;;;;;;4.60;4.05;;;25.50;1.00;;;;;;5056527;28;20108;-86
2022/04/27 11:44:40;;;;;;;7.22;4.57;;;26.10;1.00;;;;;;5054065;28;20040;-86
2022/04/27 11:47:32;;;;;;;4.75;4.28;;;26.40;1.00;;;;;;5054346;28;20103;-86
2022/04/27 11:50:03;;;;;;;4.70;4.30;;;26.60;1.00;;;;;;5054456;28;20033;-86
2022/04/27 11:52:36;;;;;;;4.95;4.55;;;27.00;1.00;;;;;;5054392;28;20032;-86
2022/04/27 11:55:14;;;;;;;5.13;4.72;;;27.10;1.00;;;;;;5051702;28;20029;-86
2022/04/27 11:57:41;;;;;;;5.30;4.80;;;27.00;1.00;;;;;;5051118;28;20033;-86
2022/04/27 12:00:07;;;;;;;6.20;5.28;;;26.80;1.00;;;;;;5056069;28;20063;-86
2022/04/27 12:02:34;;;;;;;5.82;5.32;;;27.10;1.00;;;;;;5054265;28;20079;-86
2022/04/27 12:05:00;;;;;;;6.80;5.50;;;27.10;1.00;;;;;;5054231;28;20040;-86
2022/04/27 12:07:26;;;;;;;5.95;5.25;;;27.20;1.00;;;;;;5052929;28;20431;-86
2022/04/27 12:09:57;;;;;;;5.78;5.20;;;27.40;1.00;;;;;;5051815;28;20041;-86
2022/04/27 12:12:23;;;;;;;5.35;4.95;;;27.60;1.00;;;;;;5058331;28;20021;-86
2022/04/27 12:14:49;;;;;;;5.60;5.10;;;27.60;1.00;;;;;;5057703;28;20036;-86
2022/04/27 12:17:49;;;;;;;5.60;5.10;;;27.40;1.00;;;;;;5058177;28;20025;-86
2022/04/27 12:20:39;;;;;;;5.30;4.90;;;27.50;1.00;;;;;;5058041;28;20108;-86
2022/04/27 12:23:14;;;;;;;5.55;4.88;;;28.20;1.00;;;;;;5056655;28;20524;-86
2022/04/27 12:25:57;;;;;;;5.68;5.18;;;28.50;1.00;;;;;;5058070;28;20036;-86
2022/04/27 12:28:53;;;;;;;5.45;5.05;;;27.30;1.00;;;;;;5057606;28;20025;-86
2022/04/27 12:31:25;;;;;;;6.57;5.20;;;27.30;1.00;;;;;;5056108;28;20409;-86
2022/04/27 12:33:51;;;;;;;6.25;5.53;;;27.10;1.00;;;;;;5037695;28;20041;-86
2022/04/27 12:39:23;;;;;;;5.78;5.28;;;26.50;1.00;;;;;;5067695;28;20082;-86
2022/04/27 12:41:52;;;;;;;5.47;5.05;;;27.40;1.00;;;;;;5056455;28;20442;-86
2022/04/27 12:44:25;;;;;;;5.15;4.65;;;28.10;1.00;;;;;;5055408;28;20493;-86
2022/04/27 12:47:01;;;;;;;5.93;5.00;;;27.90;1.00;;;;;;5056303;28;20021;-86
2022/04/27 12:49:31;;;;;;;5.85;5.30;;;27.70;1.00;;;;;;5056155;28;20119;-86
2022/04/27 12:52:23;;;;;;;5.97;5.35;;;28.20;1.00;;;;;;5054055;28;20513;-87
2022/04/27 12:54:50;;;;;;;6.78;4.90;;;28.70;1.00;;;;;;5037306;28;20028;-86
2022/04/27 12:57:16;;;;;;;5.07;4.68;;;28.30;1.00;;;;;;5070342;28;20028;-86
2022/04/27 12:59:59;;;;;;;5.65;5.20;;;28.40;1.00;;;;;;5057665;28;20087;-86
2022/04/27 13:02:25;;;;;;;4.68;4.28;;;28.70;1.00;;;;;;5057377;28;20040;-86
2022/04/27 13:04:52;;;;;;;6.15;4.72;;;28.80;1.00;;;;;;5057356;28;20033;-86
2022/04/27 13:07:18;;;;;;;5.85;4.40;;;28.50;1.00;;;;;;5056779;28;20060;-86
2022/04/27 13:12:32;;;;;;;7.93;4.60;;;28.70;1.00;;;;;;5067287;28;20043;-86
2022/04/27 13:14:58;;;;;;;5.40;4.90;;;28.90;1.00;;;;;;5058784;28;20112;-86
2022/04/27 13:17:24;;;;;;;7.45;5.00;;;28.50;1.00;;;;;;5057082;28;20029;-86
2022/04/27 13:19:49;;;;;;;5.50;5.07;;;28.30;1.00;;;;;;5056303;28;20111;-86
2022/04/27 13:22:15;;;;;;;6.88;4.45;;;28.20;1.00;;;;;;5054549;28;20060;-86
2022/04/27 13:24:41;;;;;;;5.80;5.40;;;28.50;1.00;;;;;;5053598;28;20045;-86